sensor_id;sensor_type;location;lat;lon;timestamp;pressure;altitude;pressure_sealevel;temperature
68939;BMP180;59064;45.294;11.816;2023-04-06T00:01:24;101730.20;;;3.90
68939;BMP180;59064;45.294;11.816;2023-04-06T00:03:50;101725.80;;;3.90
68939;BMP180;59064;45.294;11.816;2023-04-06T00:06:16;101724.40;;;3.96
68939;BMP180;59064;45.294;11.816;2023-04-06T00:08:41;101727.00;;;4.00
68939;BMP180;59064;45.294;11.816;2023-04-06T00:11:08;101725.80;;;4.00
68939;BMP180;59064;45.294;11.816;2023-04-06T00:13:34;101724.40;;;4.00
68939;BMP180;59064;45.294;11.816;2023-04-06T00:16:00;101714.20;;;3.96
68939;BMP180;59064;45.294;11.816;2023-04-06T00:18:25;101717.00;;;3.90
68939;BMP180;59064;45.294;11.816;2023-04-06T00:20:51;101717.60;;;3.90
68939;BMP180;59064;45.294;11.816;2023-04-06T00:23:17;101720.60;;;3.94
68939;BMP180;59064;45.294;11.816;2023-04-06T00:25:43;101717.40;;;4.00
68939;BMP180;59064;45.294;11.816;2023-04-06T00:28:08;101719.20;;;4.00
68939;BMP180;59064;45.294;11.816;2023-04-06T00:30:34;101719.80;;;4.00
68939;BMP180;59064;45.294;11.816;2023-04-06T00:32:59;101720.60;;;3.90
68939;BMP180;59064;45.294;11.816;2023-04-06T00:35:25;101716.80;;;3.90
68939;BMP180;59064;45.294;11.816;2023-04-06T00:37:52;101716.00;;;3.90
68939;BMP180;59064;45.294;11.816;2023-04-06T00:40:17;101715.00;;;3.80
68939;BMP180;59064;45.294;11.816;2023-04-06T00:42:43;101714.60;;;3.80
68939;BMP180;59064;45.294;11.816;2023-04-06T00:45:09;101717.80;;;3.70
68939;BMP180;59064;45.294;11.816;2023-04-06T00:47:35;101718.80;;;3.60
68939;BMP180;59064;45.294;11.816;2023-04-06T00:50:01;101718.00;;;3.60
68939;BMP180;59064;45.294;11.816;2023-04-06T00:52:26;101718.60;;;3.50
68939;BMP180;59064;45.294;11.816;2023-04-06T00:54:52;101717.80;;;3.40
68939;BMP180;59064;45.294;11.816;2023-04-06T00:57:18;101709.80;;;3.40
68939;BMP180;59064;45.294;11.816;2023-04-06T00:59:44;101718.20;;;3.40
68939;BMP180;59064;45.294;11.816;2023-04-06T01:02:10;101715.60;;;3.38
68939;BMP180;59064;45.294;11.816;2023-04-06T01:04:36;101710.60;;;3.38
68939;BMP180;59064;45.294;11.816;2023-04-06T01:07:01;101711.60;;;3.30
68939;BMP180;59064;45.294;11.816;2023-04-06T01:09:28;101707.00;;;3.30
68939;BMP180;59064;45.294;11.816;2023-04-06T01:11:55;101708.60;;;3.38
68939;BMP180;59064;45.294;11.816;2023-04-06T01:14:21;101711.40;;;3.40
68939;BMP180;59064;45.294;11.816;2023-04-06T01:16:47;101710.80;;;3.40
68939;BMP180;59064;45.294;11.816;2023-04-06T01:19:13;101707.60;;;3.30
68939;BMP180;59064;45.294;11.816;2023-04-06T01:21:39;101706.40;;;3.20
68939;BMP180;59064;45.294;11.816;2023-04-06T01:24:06;101706.60;;;3.20
68939;BMP180;59064;45.294;11.816;2023-04-06T01:26:33;101701.60;;;3.30
68939;BMP180;59064;45.294;11.816;2023-04-06T01:29:00;101701.20;;;3.30
68939;BMP180;59064;45.294;11.816;2023-04-06T01:31:26;101701.20;;;3.36
68939;BMP180;59064;45.294;11.816;2023-04-06T01:33:53;101695.20;;;3.36
68939;BMP180;59064;45.294;11.816;2023-04-06T01:36:19;101697.60;;;3.26
68939;BMP180;59064;45.294;11.816;2023-04-06T01:38:44;101699.00;;;3.10
68939;BMP180;59064;45.294;11.816;2023-04-06T01:41:10;101699.20;;;2.90
68939;BMP180;59064;45.294;11.816;2023-04-06T01:43:36;101697.80;;;2.80
68939;BMP180;59064;45.294;11.816;2023-04-06T01:46:01;101700.60;;;2.70
68939;BMP180;59064;45.294;11.816;2023-04-06T01:48:27;101701.80;;;2.78
68939;BMP180;59064;45.294;11.816;2023-04-06T01:50:53;101702.40;;;2.80
68939;BMP180;59064;45.294;11.816;2023-04-06T01:53:19;101697.20;;;2.80
68939;BMP180;59064;45.294;11.816;2023-04-06T01:55:45;101699.40;;;2.72
68939;BMP180;59064;45.294;11.816;2023-04-06T01:58:11;101698.60;;;2.70
68939;BMP180;59064;45.294;11.816;2023-04-06T02:00:36;101697.00;;;2.68
68939;BMP180;59064;45.294;11.816;2023-04-06T02:03:02;101696.80;;;2.60
68939;BMP180;59064;45.294;11.816;2023-04-06T02:05:29;101694.00;;;2.42
68939;BMP180;59064;45.294;11.816;2023-04-06T02:07:55;101691.00;;;2.40
68939;BMP180;59064;45.294;11.816;2023-04-06T02:10:22;101694.80;;;2.30
68939;BMP180;59064;45.294;11.816;2023-04-06T02:12:47;101696.00;;;2.20
68939;BMP180;59064;45.294;11.816;2023-04-06T02:15:13;101693.60;;;2.20
68939;BMP180;59064;45.294;11.816;2023-04-06T02:17:39;101690.00;;;2.14
68939;BMP180;59064;45.294;11.816;2023-04-06T02:20:06;101691.40;;;2.10
68939;BMP180;59064;45.294;11.816;2023-04-06T02:22:31;101690.40;;;2.10
68939;BMP180;59064;45.294;11.816;2023-04-06T02:24:57;101690.40;;;2.04
68939;BMP180;59064;45.294;11.816;2023-04-06T02:27:22;101687.40;;;2.00
68939;BMP180;59064;45.294;11.816;2023-04-06T02:29:48;101682.00;;;1.90
68939;BMP180;59064;45.294;11.816;2023-04-06T02:32:13;101682.80;;;1.80
68939;BMP180;59064;45.294;11.816;2023-04-06T02:34:39;101682.80;;;1.70
68939;BMP180;59064;45.294;11.816;2023-04-06T02:37:05;101680.60;;;1.70
68939;BMP180;59064;45.294;11.816;2023-04-06T02:39:31;101683.00;;;1.70
68939;BMP180;59064;45.294;11.816;2023-04-06T02:41:56;101684.40;;;1.60
68939;BMP180;59064;45.294;11.816;2023-04-06T02:44:22;101684.60;;;1.60
68939;BMP180;59064;45.294;11.816;2023-04-06T02:46:48;101687.40;;;1.58
68939;BMP180;59064;45.294;11.816;2023-04-06T02:49:13;101690.40;;;1.60
68939;BMP180;59064;45.294;11.816;2023-04-06T02:51:39;101690.80;;;1.60
68939;BMP180;59064;45.294;11.816;2023-04-06T02:54:04;101689.00;;;1.60
68939;BMP180;59064;45.294;11.816;2023-04-06T02:56:30;101689.60;;;1.56
68939;BMP180;59064;45.294;11.816;2023-04-06T02:58:55;101693.20;;;1.60
68939;BMP180;59064;45.294;11.816;2023-04-06T03:01:21;101698.40;;;1.68
68939;BMP180;59064;45.294;11.816;2023-04-06T03:03:47;101699.20;;;1.70
68939;BMP180;59064;45.294;11.816;2023-04-06T03:06:12;101701.00;;;1.80
68939;BMP180;59064;45.294;11.816;2023-04-06T03:08:38;101696.00;;;1.90
68939;BMP180;59064;45.294;11.816;2023-04-06T03:11:03;101698.00;;;2.00
68939;BMP180;59064;45.294;11.816;2023-04-06T03:13:29;101698.20;;;1.90
68939;BMP180;59064;45.294;11.816;2023-04-06T03:15:55;101703.80;;;1.80
68939;BMP180;59064;45.294;11.816;2023-04-06T03:18:22;101705.80;;;1.60
68939;BMP180;59064;45.294;11.816;2023-04-06T03:20:48;101698.00;;;1.50
68939;BMP180;59064;45.294;11.816;2023-04-06T03:23:14;101696.20;;;1.44
68939;BMP180;59064;45.294;11.816;2023-04-06T03:25:40;101698.20;;;1.40
68939;BMP180;59064;45.294;11.816;2023-04-06T03:28:05;101695.00;;;1.40
68939;BMP180;59064;45.294;11.816;2023-04-06T03:30:31;101698.60;;;1.50
68939;BMP180;59064;45.294;11.816;2023-04-06T03:32:57;101701.40;;;1.50
68939;BMP180;59064;45.294;11.816;2023-04-06T03:35:22;101702.00;;;1.50
68939;BMP180;59064;45.294;11.816;2023-04-06T03:37:48;101697.60;;;1.60
68939;BMP180;59064;45.294;11.816;2023-04-06T03:40:13;101697.40;;;1.70
68939;BMP180;59064;45.294;11.816;2023-04-06T03:42:39;101703.60;;;1.80
68939;BMP180;59064;45.294;11.816;2023-04-06T03:45:04;101696.60;;;1.90
68939;BMP180;59064;45.294;11.816;2023-04-06T03:47:30;101698.00;;;2.00
68939;BMP180;59064;45.294;11.816;2023-04-06T03:49:56;101692.80;;;2.10
68939;BMP180;59064;45.294;11.816;2023-04-06T03:52:21;101693.40;;;2.10
68939;BMP180;59064;45.294;11.816;2023-04-06T03:54:48;101694.40;;;2.10
68939;BMP180;59064;45.294;11.816;2023-04-06T03:57:14;101689.20;;;2.14
68939;BMP180;59064;45.294;11.816;2023-04-06T03:59:40;101691.20;;;2.20
68939;BMP180;59064;45.294;11.816;2023-04-06T04:02:05;101693.40;;;2.30
68939;BMP180;59064;45.294;11.816;2023-04-06T04:04:30;101692.20;;;2.50
68939;BMP180;59064;45.294;11.816;2023-04-06T04:06:56;101693.40;;;2.60
68939;BMP180;59064;45.294;11.816;2023-04-06T04:09:22;101691.20;;;2.80
68939;BMP180;59064;45.294;11.816;2023-04-06T04:11:48;101694.00;;;2.88
68939;BMP180;59064;45.294;11.816;2023-04-06T04:14:13;101698.00;;;2.88
68939;BMP180;59064;45.294;11.816;2023-04-06T04:16:39;101693.40;;;2.90
68939;BMP180;59064;45.294;11.816;2023-04-06T04:19:06;101690.80;;;2.80
68939;BMP180;59064;45.294;11.816;2023-04-06T04:21:31;101690.60;;;2.84
68939;BMP180;59064;45.294;11.816;2023-04-06T04:23:57;101695.00;;;2.80
68939;BMP180;59064;45.294;11.816;2023-04-06T04:26:22;101697.40;;;2.80
68939;BMP180;59064;45.294;11.816;2023-04-06T04:28:48;101699.80;;;2.80
68939;BMP180;59064;45.294;11.816;2023-04-06T04:31:14;101699.80;;;2.70
68939;BMP180;59064;45.294;11.816;2023-04-06T04:33:42;101696.00;;;2.70
68939;BMP180;59064;45.294;11.816;2023-04-06T04:36:08;101696.40;;;2.70
68939;BMP180;59064;45.294;11.816;2023-04-06T04:38:33;101698.80;;;2.70
68939;BMP180;59064;45.294;11.816;2023-04-06T04:40:59;101699.40;;;2.70
68939;BMP180;59064;45.294;11.816;2023-04-06T04:43:25;101702.80;;;2.70
68939;BMP180;59064;45.294;11.816;2023-04-06T04:45:50;101702.80;;;2.70
68939;BMP180;59064;45.294;11.816;2023-04-06T04:48:16;101703.40;;;2.76
68939;BMP180;59064;45.294;11.816;2023-04-06T04:50:41;101705.20;;;2.80
68939;BMP180;59064;45.294;11.816;2023-04-06T04:53:07;101702.60;;;2.80
68939;BMP180;59064;45.294;11.816;2023-04-06T04:55:32;101704.80;;;2.80
68939;BMP180;59064;45.294;11.816;2023-04-06T04:57:58;101707.60;;;2.70
68939;BMP180;59064;45.294;11.816;2023-04-06T05:00:24;101713.80;;;2.70
68939;BMP180;59064;45.294;11.816;2023-04-06T05:02:49;101709.60;;;2.70
68939;BMP180;59064;45.294;11.816;2023-04-06T05:05:15;101711.20;;;2.70
68939;BMP180;59064;45.294;11.816;2023-04-06T05:07:40;101716.00;;;2.80
68939;BMP180;59064;45.294;11.816;2023-04-06T05:10:06;101710.80;;;2.90
68939;BMP180;59064;45.294;11.816;2023-04-06T05:12:32;101708.60;;;2.90
68939;BMP180;59064;45.294;11.816;2023-04-06T05:14:58;101716.00;;;3.00
68939;BMP180;59064;45.294;11.816;2023-04-06T05:17:23;101710.00;;;3.00
68939;BMP180;59064;45.294;11.816;2023-04-06T05:19:49;101710.60;;;3.10
68939;BMP180;59064;45.294;11.816;2023-04-06T05:22:15;101719.00;;;3.20
68939;BMP180;59064;45.294;11.816;2023-04-06T05:24:43;101719.00;;;3.24
68939;BMP180;59064;45.294;11.816;2023-04-06T05:27:09;101714.60;;;3.30
68939;BMP180;59064;45.294;11.816;2023-04-06T05:29:34;101719.60;;;3.32
68939;BMP180;59064;45.294;11.816;2023-04-06T05:32:01;101716.00;;;3.40
68939;BMP180;59064;45.294;11.816;2023-04-06T05:34:27;101718.80;;;3.48
68939;BMP180;59064;45.294;11.816;2023-04-06T05:36:53;101717.40;;;3.58
68939;BMP180;59064;45.294;11.816;2023-04-06T05:39:18;101718.20;;;3.66
68939;BMP180;59064;45.294;11.816;2023-04-06T05:41:44;101719.60;;;3.72
68939;BMP180;59064;45.294;11.816;2023-04-06T05:44:10;101716.80;;;3.80
68939;BMP180;59064;45.294;11.816;2023-04-06T05:46:36;101722.20;;;3.94
68939;BMP180;59064;45.294;11.816;2023-04-06T05:49:01;101725.80;;;4.10
68939;BMP180;59064;45.294;11.816;2023-04-06T05:51:27;101719.20;;;4.20
68939;BMP180;59064;45.294;11.816;2023-04-06T05:53:52;101720.00;;;4.40
68939;BMP180;59064;45.294;11.816;2023-04-06T05:56:18;101724.00;;;4.58
68939;BMP180;59064;45.294;11.816;2023-04-06T05:58:43;101724.40;;;4.70
68939;BMP180;59064;45.294;11.816;2023-04-06T06:01:09;101721.60;;;4.90
68939;BMP180;59064;45.294;11.816;2023-04-06T06:03:35;101727.60;;;5.10
68939;BMP180;59064;45.294;11.816;2023-04-06T06:06:04;101731.80;;;5.28
68939;BMP180;59064;45.294;11.816;2023-04-06T06:08:30;101731.80;;;5.44
68939;BMP180;59064;45.294;11.816;2023-04-06T06:10:56;101736.60;;;5.64
68939;BMP180;59064;45.294;11.816;2023-04-06T06:13:22;101736.80;;;5.80
68939;BMP180;59064;45.294;11.816;2023-04-06T06:15:48;101739.00;;;5.92
68939;BMP180;59064;45.294;11.816;2023-04-06T06:18:14;101740.00;;;6.10
68939;BMP180;59064;45.294;11.816;2023-04-06T06:20:39;101744.80;;;6.24
68939;BMP180;59064;45.294;11.816;2023-04-06T06:23:05;101742.20;;;6.40
68939;BMP180;59064;45.294;11.816;2023-04-06T06:25:30;101742.80;;;6.60
68939;BMP180;59064;45.294;11.816;2023-04-06T06:27:56;101749.20;;;6.70
68939;BMP180;59064;45.294;11.816;2023-04-06T06:30:22;101737.40;;;6.80
68939;BMP180;59064;45.294;11.816;2023-04-06T06:32:48;101745.40;;;6.92
68939;BMP180;59064;45.294;11.816;2023-04-06T06:35:13;101741.60;;;7.00
68939;BMP180;59064;45.294;11.816;2023-04-06T06:37:40;101741.20;;;7.04
68939;BMP180;59064;45.294;11.816;2023-04-06T06:40:08;101738.40;;;7.10
68939;BMP180;59064;45.294;11.816;2023-04-06T06:42:34;101738.60;;;7.20
68939;BMP180;59064;45.294;11.816;2023-04-06T06:44:59;101736.00;;;7.30
68939;BMP180;59064;45.294;11.816;2023-04-06T06:47:25;101738.80;;;7.30
68939;BMP180;59064;45.294;11.816;2023-04-06T06:49:51;101742.40;;;7.40
68939;BMP180;59064;45.294;11.816;2023-04-06T06:52:16;101744.40;;;7.50
68939;BMP180;59064;45.294;11.816;2023-04-06T06:54:42;101746.60;;;7.56
68939;BMP180;59064;45.294;11.816;2023-04-06T06:57:08;101752.00;;;7.60
68939;BMP180;59064;45.294;11.816;2023-04-06T06:59:34;101754.80;;;7.70
68939;BMP180;59064;45.294;11.816;2023-04-06T07:02:00;101759.20;;;7.70
68939;BMP180;59064;45.294;11.816;2023-04-06T07:04:25;101762.20;;;7.70
68939;BMP180;59064;45.294;11.816;2023-04-06T07:06:51;101762.00;;;7.70
68939;BMP180;59064;45.294;11.816;2023-04-06T07:09:17;101764.00;;;7.60
68939;BMP180;59064;45.294;11.816;2023-04-06T07:11:43;101765.80;;;7.60
68939;BMP180;59064;45.294;11.816;2023-04-06T07:14:09;101765.60;;;7.60
68939;BMP180;59064;45.294;11.816;2023-04-06T07:16:34;101765.80;;;7.70
68939;BMP180;59064;45.294;11.816;2023-04-06T07:19:00;101761.40;;;7.78
68939;BMP180;59064;45.294;11.816;2023-04-06T07:21:26;101760.40;;;7.90
68939;BMP180;59064;45.294;11.816;2023-04-06T07:23:52;101764.40;;;7.90
68939;BMP180;59064;45.294;11.816;2023-04-06T07:26:17;101761.80;;;7.96
68939;BMP180;59064;45.294;11.816;2023-04-06T07:28:43;101764.20;;;8.18
68939;BMP180;59064;45.294;11.816;2023-04-06T07:31:09;101758.40;;;8.30
68939;BMP180;59064;45.294;11.816;2023-04-06T07:33:34;101754.40;;;8.40
68939;BMP180;59064;45.294;11.816;2023-04-06T07:36:00;101754.00;;;8.40
68939;BMP180;59064;45.294;11.816;2023-04-06T07:38:25;101758.20;;;8.50
68939;BMP180;59064;45.294;11.816;2023-04-06T07:40:51;101759.00;;;8.70
68939;BMP180;59064;45.294;11.816;2023-04-06T07:43:17;101757.60;;;8.88
68939;BMP180;59064;45.294;11.816;2023-04-06T07:45:42;101756.80;;;8.90
68939;BMP180;59064;45.294;11.816;2023-04-06T07:48:08;101756.60;;;9.10
68939;BMP180;59064;45.294;11.816;2023-04-06T07:50:34;101757.40;;;9.20
68939;BMP180;59064;45.294;11.816;2023-04-06T07:52:59;101758.40;;;9.30
68939;BMP180;59064;45.294;11.816;2023-04-06T07:55:25;101757.40;;;9.50
68939;BMP180;59064;45.294;11.816;2023-04-06T07:57:51;101764.20;;;9.60
68939;BMP180;59064;45.294;11.816;2023-04-06T08:00:17;101760.60;;;9.64
68939;BMP180;59064;45.294;11.816;2023-04-06T08:02:43;101760.80;;;9.60
68939;BMP180;59064;45.294;11.816;2023-04-06T08:05:09;101760.40;;;9.60
68939;BMP180;59064;45.294;11.816;2023-04-06T08:07:35;101763.80;;;9.62
68939;BMP180;59064;45.294;11.816;2023-04-06T08:10:01;101761.00;;;9.70
68939;BMP180;59064;45.294;11.816;2023-04-06T08:12:27;101761.40;;;9.96
68939;BMP180;59064;45.294;11.816;2023-04-06T08:14:53;101762.60;;;10.10
68939;BMP180;59064;45.294;11.816;2023-04-06T08:17:19;101764.00;;;10.20
68939;BMP180;59064;45.294;11.816;2023-04-06T08:19:45;101765.20;;;10.26
68939;BMP180;59064;45.294;11.816;2023-04-06T08:22:11;101767.80;;;10.72
68939;BMP180;59064;45.294;11.816;2023-04-06T08:24:37;101761.60;;;11.20
68939;BMP180;59064;45.294;11.816;2023-04-06T08:27:03;101760.00;;;11.12
68939;BMP180;59064;45.294;11.816;2023-04-06T08:29:29;101762.60;;;11.20
68939;BMP180;59064;45.294;11.816;2023-04-06T08:31:54;101762.80;;;11.16
68939;BMP180;59064;45.294;11.816;2023-04-06T08:34:20;101758.60;;;11.20
68939;BMP180;59064;45.294;11.816;2023-04-06T08:36:46;101754.00;;;11.58
68939;BMP180;59064;45.294;11.816;2023-04-06T08:39:12;101761.00;;;11.80
68939;BMP180;59064;45.294;11.816;2023-04-06T08:41:38;101759.00;;;12.00
68939;BMP180;59064;45.294;11.816;2023-04-06T08:44:03;101753.60;;;12.12
68939;BMP180;59064;45.294;11.816;2023-04-06T08:46:30;101760.40;;;12.28
68939;BMP180;59064;45.294;11.816;2023-04-06T08:49:00;101759.40;;;12.52
68939;BMP180;59064;45.294;11.816;2023-04-06T08:51:27;101762.20;;;12.84
68939;BMP180;59064;45.294;11.816;2023-04-06T08:53:54;101761.20;;;13.16
68939;BMP180;59064;45.294;11.816;2023-04-06T08:56:24;101759.00;;;13.36
68939;BMP180;59064;45.294;11.816;2023-04-06T08:58:50;101756.40;;;13.20
68939;BMP180;59064;45.294;11.816;2023-04-06T09:01:20;101750.40;;;13.00
68939;BMP180;59064;45.294;11.816;2023-04-06T09:03:46;101748.80;;;13.12
68939;BMP180;59064;45.294;11.816;2023-04-06T09:06:13;101750.00;;;13.32
68939;BMP180;59064;45.294;11.816;2023-04-06T09:08:40;101745.80;;;13.50
68939;BMP180;59064;45.294;11.816;2023-04-06T09:11:07;101744.80;;;13.70
68939;BMP180;59064;45.294;11.816;2023-04-06T09:13:47;101742.40;;;13.80
68939;BMP180;59064;45.294;11.816;2023-04-06T09:16:13;101744.00;;;14.06
68939;BMP180;59064;45.294;11.816;2023-04-06T09:18:39;101740.00;;;14.30
68939;BMP180;59064;45.294;11.816;2023-04-06T09:21:06;101743.20;;;14.50
68939;BMP180;59064;45.294;11.816;2023-04-06T09:23:32;101743.20;;;14.60
68939;BMP180;59064;45.294;11.816;2023-04-06T09:26:15;101734.60;;;14.22
68939;BMP180;59064;45.294;11.816;2023-04-06T09:28:52;101735.60;;;13.80
68939;BMP180;59064;45.294;11.816;2023-04-06T09:31:23;101737.00;;;13.80
68939;BMP180;59064;45.294;11.816;2023-04-06T09:33:50;101740.20;;;13.96
68939;BMP180;59064;45.294;11.816;2023-04-06T09:36:15;101738.60;;;14.22
68939;BMP180;59064;45.294;11.816;2023-04-06T09:38:55;101736.80;;;14.40
68939;BMP180;59064;45.294;11.816;2023-04-06T09:41:23;101734.80;;;14.30
68939;BMP180;59064;45.294;11.816;2023-04-06T09:43:52;101731.20;;;14.46
68939;BMP180;59064;45.294;11.816;2023-04-06T09:46:27;101728.80;;;14.50
68939;BMP180;59064;45.294;11.816;2023-04-06T09:48:53;101726.00;;;14.38
68939;BMP180;59064;45.294;11.816;2023-04-06T09:51:19;101722.60;;;14.54
68939;BMP180;59064;45.294;11.816;2023-04-06T09:53:52;101726.40;;;15.00
68939;BMP180;59064;45.294;11.816;2023-04-06T09:56:21;101723.00;;;15.20
68939;BMP180;59064;45.294;11.816;2023-04-06T09:58:53;101721.60;;;14.72
68939;BMP180;59064;45.294;11.816;2023-04-06T10:01:21;101725.60;;;14.50
68939;BMP180;59064;45.294;11.816;2023-04-06T10:06:33;101720.60;;;14.60
68939;BMP180;59064;45.294;11.816;2023-04-06T10:09:02;101716.60;;;14.66
68939;BMP180;59064;45.294;11.816;2023-04-06T10:11:28;101714.20;;;14.72
68939;BMP180;59064;45.294;11.816;2023-04-06T10:13:54;101709.60;;;14.80
68939;BMP180;59064;45.294;11.816;2023-04-06T10:16:21;101708.40;;;14.88
68939;BMP180;59064;45.294;11.816;2023-04-06T10:19:01;101711.80;;;14.94
68939;BMP180;59064;45.294;11.816;2023-04-06T10:21:29;101708.40;;;15.26
68939;BMP180;59064;45.294;11.816;2023-04-06T10:23:59;101704.00;;;15.54
68939;BMP180;59064;45.294;11.816;2023-04-06T10:26:26;101706.00;;;15.70
68939;BMP180;59064;45.294;11.816;2023-04-06T10:28:51;101700.80;;;15.60
68939;BMP180;59064;45.294;11.816;2023-04-06T10:31:25;101702.00;;;15.54
68939;BMP180;59064;45.294;11.816;2023-04-06T10:33:58;101699.00;;;15.86
68939;BMP180;59064;45.294;11.816;2023-04-06T10:36:31;101694.40;;;15.88
68939;BMP180;59064;45.294;11.816;2023-04-06T10:39:02;101690.40;;;15.80
68939;BMP180;59064;45.294;11.816;2023-04-06T10:41:42;101687.00;;;15.90
68939;BMP180;59064;45.294;11.816;2023-04-06T10:44:21;101684.60;;;15.50
68939;BMP180;59064;45.294;11.816;2023-04-06T10:46:57;101682.00;;;15.60
68939;BMP180;59064;45.294;11.816;2023-04-06T10:49:24;101686.60;;;15.88
68939;BMP180;59064;45.294;11.816;2023-04-06T10:51:54;101681.80;;;16.12
68939;BMP180;59064;45.294;11.816;2023-04-06T10:54:24;101683.00;;;16.50
68939;BMP180;59064;45.294;11.816;2023-04-06T10:56:51;101677.80;;;16.18
68939;BMP180;59064;45.294;11.816;2023-04-06T10:59:20;101675.20;;;16.10
68939;BMP180;59064;45.294;11.816;2023-04-06T11:01:46;101671.60;;;16.14
68939;BMP180;59064;45.294;11.816;2023-04-06T11:04:15;101671.80;;;16.30
68939;BMP180;59064;45.294;11.816;2023-04-06T11:06:41;101669.60;;;16.52
68939;BMP180;59064;45.294;11.816;2023-04-06T11:09:11;101660.00;;;16.70
68939;BMP180;59064;45.294;11.816;2023-04-06T11:11:38;101658.00;;;16.74
68939;BMP180;59064;45.294;11.816;2023-04-06T11:14:04;101657.80;;;16.62
68939;BMP180;59064;45.294;11.816;2023-04-06T11:16:31;101650.20;;;16.60
68939;BMP180;59064;45.294;11.816;2023-04-06T11:19:00;101649.80;;;16.76
68939;BMP180;59064;45.294;11.816;2023-04-06T11:24:14;101643.00;;;17.10
68939;BMP180;59064;45.294;11.816;2023-04-06T11:26:46;101639.80;;;16.80
68939;BMP180;59064;45.294;11.816;2023-04-06T11:29:15;101635.40;;;16.80
68939;BMP180;59064;45.294;11.816;2023-04-06T11:31:50;101631.40;;;16.90
68939;BMP180;59064;45.294;11.816;2023-04-06T11:34:23;101626.00;;;16.70
68939;BMP180;59064;45.294;11.816;2023-04-06T11:36:58;101624.80;;;16.70
68939;BMP180;59064;45.294;11.816;2023-04-06T11:39:25;101616.40;;;17.10
68939;BMP180;59064;45.294;11.816;2023-04-06T11:41:54;101622.80;;;17.30
68939;BMP180;59064;45.294;11.816;2023-04-06T11:44:33;101616.40;;;17.20
68939;BMP180;59064;45.294;11.816;2023-04-06T11:47:04;101612.60;;;17.16
68939;BMP180;59064;45.294;11.816;2023-04-06T11:49:31;101608.00;;;17.30
68939;BMP180;59064;45.294;11.816;2023-04-06T11:51:58;101604.60;;;17.68
68939;BMP180;59064;45.294;11.816;2023-04-06T11:54:34;101597.80;;;17.74
68939;BMP180;59064;45.294;11.816;2023-04-06T11:57:04;101599.00;;;17.86
68939;BMP180;59064;45.294;11.816;2023-04-06T11:59:31;101595.60;;;17.80
68939;BMP180;59064;45.294;11.816;2023-04-06T12:01:57;101586.40;;;18.08
68939;BMP180;59064;45.294;11.816;2023-04-06T12:04:23;101583.60;;;18.48
68939;BMP180;59064;45.294;11.816;2023-04-06T12:06:49;101589.00;;;18.50
68939;BMP180;59064;45.294;11.816;2023-04-06T12:09:16;101583.00;;;18.02
68939;BMP180;59064;45.294;11.816;2023-04-06T12:11:42;101579.80;;;17.70
68939;BMP180;59064;45.294;11.816;2023-04-06T12:14:08;101576.40;;;17.62
68939;BMP180;59064;45.294;11.816;2023-04-06T12:16:34;101578.20;;;17.70
68939;BMP180;59064;45.294;11.816;2023-04-06T12:19:00;101574.80;;;17.98
68939;BMP180;59064;45.294;11.816;2023-04-06T12:21:34;101575.40;;;18.00
68939;BMP180;59064;45.294;11.816;2023-04-06T12:24:02;101571.00;;;17.82
68939;BMP180;59064;45.294;11.816;2023-04-06T12:26:28;101566.60;;;17.76
68939;BMP180;59064;45.294;11.816;2023-04-06T12:28:53;101566.80;;;17.90
68939;BMP180;59064;45.294;11.816;2023-04-06T12:31:21;101565.20;;;18.00
68939;BMP180;59064;45.294;11.816;2023-04-06T12:33:48;101563.00;;;18.24
68939;BMP180;59064;45.294;11.816;2023-04-06T12:36:15;101560.40;;;18.20
68939;BMP180;59064;45.294;11.816;2023-04-06T12:38:47;101559.80;;;18.18
68939;BMP180;59064;45.294;11.816;2023-04-06T12:41:13;101551.00;;;18.44
68939;BMP180;59064;45.294;11.816;2023-04-06T12:43:42;101545.60;;;18.60
68939;BMP180;59064;45.294;11.816;2023-04-06T12:46:08;101542.40;;;18.86
68939;BMP180;59064;45.294;11.816;2023-04-06T12:48:34;101541.40;;;19.00
68939;BMP180;59064;45.294;11.816;2023-04-06T12:51:02;101549.40;;;19.10
68939;BMP180;59064;45.294;11.816;2023-04-06T12:53:28;101544.60;;;18.66
68939;BMP180;59064;45.294;11.816;2023-04-06T12:55:55;101543.40;;;18.88
68939;BMP180;59064;45.294;11.816;2023-04-06T12:58:22;101543.00;;;19.16
68939;BMP180;59064;45.294;11.816;2023-04-06T13:00:48;101542.40;;;19.04
68939;BMP180;59064;45.294;11.816;2023-04-06T13:03:15;101540.80;;;18.98
68939;BMP180;59064;45.294;11.816;2023-04-06T13:05:50;101539.40;;;19.18
68939;BMP180;59064;45.294;11.816;2023-04-06T13:08:18;101533.60;;;19.44
68939;BMP180;59064;45.294;11.816;2023-04-06T13:10:47;101530.40;;;19.24
68939;BMP180;59064;45.294;11.816;2023-04-06T13:13:17;101531.60;;;19.10
68939;BMP180;59064;45.294;11.816;2023-04-06T13:15:43;101528.00;;;18.72
68939;BMP180;59064;45.294;11.816;2023-04-06T13:18:10;101533.40;;;18.54
68939;BMP180;59064;45.294;11.816;2023-04-06T13:20:36;101522.40;;;18.66
68939;BMP180;59064;45.294;11.816;2023-04-06T13:23:02;101520.80;;;19.20
68939;BMP180;59064;45.294;11.816;2023-04-06T13:25:28;101522.00;;;19.50
68939;BMP180;59064;45.294;11.816;2023-04-06T13:27:54;101519.40;;;20.08
68939;BMP180;59064;45.294;11.816;2023-04-06T13:30:20;101519.80;;;20.12
68939;BMP180;59064;45.294;11.816;2023-04-06T13:32:46;101513.40;;;20.76
68939;BMP180;59064;45.294;11.816;2023-04-06T13:35:12;101515.20;;;20.82
68939;BMP180;59064;45.294;11.816;2023-04-06T13:37:38;101511.20;;;20.70
68939;BMP180;59064;45.294;11.816;2023-04-06T13:40:04;101503.40;;;20.70
68939;BMP180;59064;45.294;11.816;2023-04-06T13:42:31;101502.40;;;20.72
68939;BMP180;59064;45.294;11.816;2023-04-06T13:44:56;101497.40;;;20.52
68939;BMP180;59064;45.294;11.816;2023-04-06T13:47:23;101501.40;;;20.56
68939;BMP180;59064;45.294;11.816;2023-04-06T13:49:52;101499.00;;;20.74
68939;BMP180;59064;45.294;11.816;2023-04-06T13:52:19;101494.80;;;20.64
68939;BMP180;59064;45.294;11.816;2023-04-06T13:54:45;101494.40;;;21.04